Terminal Aerodrome Forecast
Issued by NWS

Home | Current Version | Previous Version | Graphics & Text | Print | Product List | Glossary On
Versions: 1 2 3 4 5 6 7 8 9 10 11 12 13 14 15 16 17 18 19 20 21 22 23 24 25
274
FTUS43 KBIS 240146 AAB
TAFMOT
TAF AMD
KMOT 240146Z 2402/2424 23011KT P6SM VCTS SCT100CB BKN150
      TEMPO 2402/2403 VRB25G36KT -SHRA SCT070 BKN100
     FM240300 26007KT P6SM FEW150 SCT250
     FM241800 22008KT P6SM SCT200=

USA.gov is the U.S. government's official web portal to all federal, state and local government web resources and services.